createdAt,value
2023-10-12T00:02:10.616Z,84.98
2023-10-12T00:04:55.367Z,84.78
2023-10-12T00:07:34.638Z,84.54
2023-10-12T00:10:15.449Z,84.55
2023-10-12T00:12:46.840Z,84.52
2023-10-12T00:15:22.089Z,84.59
2023-10-12T00:17:54.752Z,84.48
2023-10-12T00:20:41.484Z,84.42
2023-10-12T00:23:13.441Z,85.05
2023-10-12T00:25:50.689Z,84.30
2023-10-12T00:28:21.199Z,84.35
2023-10-12T00:30:58.891Z,84.62
2023-10-12T00:33:26.812Z,84.46
2023-10-12T00:36:06.237Z,84.54
2023-10-12T00:38:34.043Z,84.56
2023-10-12T00:41:06.372Z,84.57
2023-10-12T00:43:39.154Z,84.80
2023-10-12T00:46:23.464Z,85.13
2023-10-12T00:48:57.709Z,85.05
2023-10-12T00:51:25.453Z,85.19
2023-10-12T00:53:58.586Z,85.08
2023-10-12T00:56:30.109Z,85.43
2023-10-12T00:58:57.676Z,85.55
2023-10-12T01:05:04.733Z,85.58
2023-10-12T01:08:51.626Z,85.71
2023-10-12T01:12:38.595Z,85.96
2023-10-12T01:16:26.404Z,86.43
2023-10-12T01:20:10.122Z,86.33
2023-10-12T01:23:57.212Z,86.05
2023-10-12T01:27:44.754Z,86.92
2023-10-12T01:31:31.943Z,86.40
2023-10-12T01:35:20.093Z,86.67
2023-10-12T01:39:06.962Z,86.68
2023-10-12T01:42:34.362Z,86.53
2023-10-12T01:46:23.951Z,86.59
2023-10-12T01:49:51.618Z,86.41
2023-10-12T01:53:41.322Z,86.41
2023-10-12T01:57:28.691Z,86.63
2023-10-12T02:01:05.313Z,87.32
2023-10-12T02:04:52.178Z,87.07
2023-10-12T02:08:39.010Z,86.99
2023-10-12T02:12:26.005Z,86.86
2023-10-12T02:15:53.708Z,86.89
2023-10-12T02:19:24.220Z,86.82
2023-10-12T02:22:53.165Z,86.94
2023-10-12T02:26:21.304Z,87.46
2023-10-12T02:29:51.025Z,87.86
2023-10-12T02:33:20.987Z,87.48
2023-10-12T02:37:04.143Z,87.70
2023-10-12T02:40:16.256Z,87.59
2023-10-12T02:44:03.374Z,87.45
2023-10-12T02:47:22.670Z,87.34
2023-10-12T02:51:21.906Z,87.38
2023-10-12T02:54:49.739Z,87.97
2023-10-12T02:58:40.963Z,87.85
2023-10-12T03:01:51.521Z,88.01
2023-10-12T03:05:18.913Z,88.51
2023-10-12T03:09:24.565Z,87.67
2023-10-12T03:13:00.373Z,87.44
2023-10-12T03:16:47.642Z,87.61
2023-10-12T03:20:17.140Z,86.92
2023-10-12T03:24:10.530Z,87.36
2023-10-12T03:27:57.540Z,87.28
2023-10-12T03:31:47.677Z,87.35
2023-10-12T03:35:34.813Z,87.18
2023-10-12T03:39:13.410Z,87.30
2023-10-12T03:42:32.640Z,87.31
2023-10-12T03:46:00.795Z,87.40
2023-10-12T03:49:28.716Z,87.24
2023-10-12T03:52:36.545Z,87.69
2023-10-12T03:56:23.179Z,87.53
2023-10-12T03:59:53.500Z,87.48
2023-10-12T04:03:40.424Z,87.36
2023-10-12T04:07:39.727Z,87.41
2023-10-12T04:11:25.581Z,87.29
2023-10-12T04:15:13.162Z,87.04
2023-10-12T04:19:03.468Z,86.94
2023-10-12T04:22:52.940Z,86.73
2023-10-12T04:26:17.902Z,86.61
2023-10-12T04:30:05.855Z,87.15
2023-10-12T04:34:05.385Z,87.07
2023-10-12T04:37:32.506Z,87.31
2023-10-12T04:41:00.950Z,87.58
2023-10-12T04:44:45.753Z,87.60
2023-10-12T04:48:16.957Z,87.58
2023-10-12T04:52:04.285Z,87.57
2023-10-12T04:55:18.568Z,87.49
2023-10-12T04:58:50.613Z,87.63
2023-10-12T05:02:38.167Z,87.86
2023-10-12T05:06:26.306Z,88.15
2023-10-12T05:10:15.772Z,88.50
2023-10-12T05:13:43.372Z,87.75
2023-10-12T05:17:31.140Z,88.04
2023-10-12T05:21:19.949Z,87.74
2023-10-12T05:25:10.547Z,87.71
2023-10-12T05:28:06.738Z,87.81
2023-10-12T05:30:34.182Z,88.25
2023-10-12T05:33:06.538Z,88.39
2023-10-12T05:35:54.506Z,88.37
2023-10-12T05:38:35.902Z,88.58
2023-10-12T05:41:07.684Z,88.56
2023-10-12T05:43:35.320Z,88.70
2023-10-12T05:46:15.451Z,88.87
2023-10-12T05:48:53.452Z,88.52
2023-10-12T05:51:23.549Z,88.29
2023-10-12T05:53:53.904Z,88.56
2023-10-12T05:56:21.051Z,88.73
2023-10-12T05:58:48.919Z,88.52
2023-10-12T06:04:07.742Z,88.75
2023-10-12T06:06:43.480Z,88.53
2023-10-12T06:09:15.650Z,88.69
2023-10-12T06:11:45.691Z,88.48
2023-10-12T06:14:16.258Z,88.40
2023-10-12T06:16:44.093Z,88.23
2023-10-12T06:19:28.710Z,88.18
2023-10-12T06:22:56.632Z,88.32
2023-10-12T06:26:50.517Z,88.38
2023-10-12T06:30:40.654Z,88.36
2023-10-12T06:34:28.690Z,88.90
2023-10-12T06:38:17.167Z,88.51
2023-10-12T06:41:47.593Z,88.52
2023-10-12T06:44:57.111Z,88.31
2023-10-12T06:48:26.898Z,88.08
2023-10-12T06:52:22.692Z,87.58
2023-10-12T06:56:10.036Z,86.87
2023-10-12T06:59:59.876Z,86.65
2023-10-12T07:03:47.047Z,86.13
2023-10-12T07:07:34.060Z,85.70
2023-10-12T07:10:26.080Z,85.39
2023-10-12T07:12:53.861Z,85.03
2023-10-12T07:15:23.539Z,85.07
2023-10-12T07:17:52.030Z,84.63
2023-10-12T07:20:33.182Z,84.50
2023-10-12T07:23:22.076Z,84.32
2023-10-12T07:25:51.986Z,84.14
2023-10-12T07:28:20.766Z,83.84
2023-10-12T07:31:25.254Z,84.03
2023-10-12T07:33:56.010Z,83.85
2023-10-12T07:36:44.913Z,83.92
2023-10-12T07:39:23.972Z,83.84
2023-10-12T07:42:02.633Z,83.74
2023-10-12T07:44:44.565Z,83.72
2023-10-12T07:47:21.233Z,83.53
2023-10-12T07:49:53.054Z,83.34
2023-10-12T07:52:20.197Z,82.88
2023-10-12T07:54:53.793Z,82.87
2023-10-12T07:57:32.911Z,82.61
2023-10-12T08:00:00.269Z,82.25
2023-10-12T08:02:47.385Z,82.13
2023-10-12T08:05:27.089Z,81.64
2023-10-12T08:08:00.446Z,81.17
2023-10-12T08:11:30.538Z,81.00
2023-10-12T08:15:17.335Z,80.09
2023-10-12T08:18:47.583Z,80.00
2023-10-12T08:22:14.489Z,78.93
2023-10-12T08:25:30.444Z,78.58
2023-10-12T08:28:57.232Z,77.59
2023-10-12T08:32:50.445Z,76.47
2023-10-12T08:36:19.069Z,75.82
2023-10-12T08:39:10.084Z,74.31
2023-10-12T08:41:56.579Z,72.48
2023-10-12T08:44:23.842Z,70.97
2023-10-12T08:47:08.816Z,71.26
2023-10-12T08:49:37.460Z,67.96
2023-10-12T08:52:20.710Z,68.25
2023-10-12T08:54:54.816Z,67.10
2023-10-12T08:57:40.653Z,63.35
2023-10-12T09:00:31.059Z,64.39
2023-10-12T09:03:01.995Z,63.88
2023-10-12T09:05:32.361Z,64.33
2023-10-12T09:08:07.076Z,64.57
2023-10-12T09:11:02.369Z,62.97
2023-10-12T09:13:35.087Z,62.25
2023-10-12T09:16:06.124Z,60.78
2023-10-12T09:18:43.175Z,61.23
2023-10-12T09:21:23.926Z,61.64
2023-10-12T09:24:37.804Z,61.24
2023-10-12T09:28:06.018Z,61.05
2023-10-12T09:31:52.001Z,60.97
2023-10-12T09:35:05.634Z,61.17
2023-10-12T09:38:34.120Z,60.82
2023-10-12T09:45:46.020Z,60.67
2023-10-12T09:49:33.171Z,60.17
2023-10-12T09:53:03.410Z,59.20
2023-10-12T09:56:15.594Z,58.66
2023-10-12T09:59:39.213Z,58.15
2023-10-12T10:03:08.216Z,58.58
2023-10-12T10:06:24.188Z,59.05
2023-10-12T10:09:39.230Z,58.42
2023-10-12T10:13:02.424Z,58.36
2023-10-12T10:16:32.685Z,58.68
2023-10-12T10:19:47.856Z,57.13
2023-10-12T10:22:40.403Z,57.80
2023-10-12T10:25:45.022Z,57.47
2023-10-12T10:28:59.757Z,56.37
2023-10-12T10:31:35.315Z,56.33
2023-10-12T10:34:28.138Z,55.77
2023-10-12T10:37:55.664Z,55.97
2023-10-12T10:40:54.701Z,55.99
2023-10-12T10:43:42.357Z,55.48
2023-10-12T10:46:50.972Z,55.97
2023-10-12T10:52:08.464Z,55.32
2023-10-12T10:54:41.461Z,54.82
2023-10-12T10:57:26.616Z,55.42
2023-10-12T11:00:12.297Z,55.86
2023-10-12T11:02:43.736Z,55.60
2023-10-12T11:05:22.145Z,55.99
2023-10-12T11:08:29.884Z,56.59
2023-10-12T11:12:08.100Z,57.10
2023-10-12T11:15:55.895Z,56.78
2023-10-12T11:18:59.614Z,57.11
2023-10-12T11:21:49.165Z,57.10
2023-10-12T11:24:38.389Z,58.09
2023-10-12T11:27:05.952Z,58.29
2023-10-12T11:30:21.225Z,58.36
2023-10-12T11:33:51.427Z,58.90
2023-10-12T11:36:47.606Z,59.51
2023-10-12T11:40:12.562Z,59.64
2023-10-12T11:43:48.974Z,60.21
2023-10-12T11:47:41.115Z,60.05
2023-10-12T11:51:16.607Z,60.34
2023-10-12T11:54:47.333Z,60.46
2023-10-12T11:58:36.112Z,61.07
2023-10-12T12:02:26.428Z,60.98
2023-10-12T12:06:13.255Z,60.96
2023-10-12T12:09:41.561Z,60.56
2023-10-12T12:13:09.158Z,60.77
2023-10-12T12:16:36.429Z,60.61
2023-10-12T12:19:13.866Z,60.56
2023-10-12T12:21:54.387Z,60.60
2023-10-12T12:24:26.563Z,60.15
2023-10-12T12:27:05.534Z,60.28
2023-10-12T12:30:10.989Z,59.87
2023-10-12T12:33:18.263Z,59.40
2023-10-12T12:36:02.696Z,59.47
2023-10-12T12:38:37.227Z,59.58
2023-10-12T12:41:08.441Z,59.46
2023-10-12T12:43:42.778Z,59.71
2023-10-12T12:46:12.265Z,60.00
2023-10-12T12:48:40.155Z,59.88
2023-10-12T12:51:15.439Z,59.77
2023-10-12T12:53:49.760Z,59.64
2023-10-12T12:56:21.359Z,59.41
2023-10-12T12:58:54.166Z,59.71
2023-10-12T13:01:28.409Z,59.54
2023-10-12T13:04:00.864Z,59.96
2023-10-12T13:06:27.979Z,60.20
2023-10-12T13:08:56.626Z,60.15
2023-10-12T13:11:24.227Z,60.30
2023-10-12T13:13:53.100Z,60.50
2023-10-12T13:16:21.630Z,60.24
2023-10-12T13:18:51.852Z,60.07
2023-10-12T13:21:19.544Z,60.07
2023-10-12T13:23:49.187Z,60.53
2023-10-12T13:26:19.475Z,60.68
2023-10-12T13:28:47.391Z,61.10
2023-10-12T13:31:16.661Z,61.55
2023-10-12T13:33:44.679Z,61.72
2023-10-12T13:36:13.025Z,62.10
2023-10-12T13:38:42.128Z,62.60
2023-10-12T13:41:13.380Z,62.93
2023-10-12T13:43:41.098Z,63.50
2023-10-12T13:46:13.447Z,63.84
2023-10-12T13:49:21.056Z,64.34
2023-10-12T13:51:50.737Z,64.78
2023-10-12T13:54:19.509Z,65.21
2023-10-12T13:56:50.580Z,65.56
2023-10-12T13:59:18.357Z,66.32
2023-10-12T14:01:48.884Z,66.73
2023-10-12T14:04:45.993Z,67.18
2023-10-12T14:07:14.121Z,67.79
2023-10-12T14:09:41.383Z,68.12
2023-10-12T14:12:12.142Z,68.75
2023-10-12T14:14:39.605Z,69.13
2023-10-12T14:17:09.420Z,69.60
2023-10-12T14:19:37.734Z,70.06
2023-10-12T14:22:06.136Z,70.43
2023-10-12T14:24:35.555Z,70.72
2023-10-12T14:27:03.084Z,71.24
2023-10-12T14:29:31.262Z,71.64
2023-10-12T14:31:58.530Z,72.21
2023-10-12T14:34:26.878Z,72.46
2023-10-12T14:36:54.151Z,73.00
2023-10-12T14:39:25.256Z,73.58
2023-10-12T14:41:56.059Z,74.01
2023-10-12T14:44:25.099Z,76.57
2023-10-12T14:46:56.023Z,75.31
2023-10-12T14:49:25.478Z,75.40
2023-10-12T14:51:52.888Z,75.56
2023-10-12T14:54:21.689Z,76.09
2023-10-12T14:56:49.080Z,76.07
2023-10-12T14:59:35.395Z,76.50
2023-10-12T15:02:11.367Z,77.08
2023-10-12T15:04:44.160Z,77.77
2023-10-12T15:07:13.597Z,77.41
2023-10-12T15:09:50.439Z,78.96
2023-10-12T15:12:17.908Z,78.88
2023-10-12T15:14:48.575Z,78.93
2023-10-12T15:17:20.680Z,79.99
2023-10-12T15:19:49.191Z,79.98
2023-10-12T15:22:16.721Z,81.63
2023-10-12T15:24:44.483Z,81.11
2023-10-12T15:27:12.720Z,80.49
2023-10-12T15:29:41.414Z,80.48
2023-10-12T15:32:09.235Z,80.59
2023-10-12T15:34:36.966Z,80.76
2023-10-12T15:37:04.127Z,80.66
2023-10-12T15:39:34.148Z,80.63
2023-10-12T15:42:01.526Z,80.61
2023-10-12T15:44:29.254Z,80.81
2023-10-12T15:47:21.212Z,81.35
2023-10-12T15:50:14.510Z,81.24
2023-10-12T15:53:07.007Z,81.27
2023-10-12T15:56:27.981Z,81.52
2023-10-12T15:58:55.657Z,81.69
2023-10-12T16:01:29.042Z,81.63
2023-10-12T16:03:57.590Z,81.99
2023-10-12T16:06:27.118Z,81.87
2023-10-12T16:08:58.239Z,82.01
2023-10-12T16:11:25.525Z,81.91
2023-10-12T16:13:54.220Z,81.96
2023-10-12T16:16:21.465Z,82.12
2023-10-12T16:18:49.772Z,82.27
2023-10-12T16:21:18.567Z,82.51
2023-10-12T16:23:47.061Z,82.79
2023-10-12T16:26:16.560Z,82.69
2023-10-12T16:28:44.508Z,83.90
2023-10-12T16:31:12.841Z,83.61
2023-10-12T16:33:42.297Z,83.67
2023-10-12T16:36:14.651Z,83.87
2023-10-12T16:38:42.132Z,83.78
2023-10-12T16:41:12.815Z,84.14
2023-10-12T16:43:50.035Z,83.81
2023-10-12T16:46:23.721Z,83.71
2023-10-12T16:48:54.434Z,83.96
2023-10-12T16:51:22.762Z,83.92
2023-10-12T16:53:50.353Z,84.02
2023-10-12T16:56:18.103Z,83.77
2023-10-12T16:58:46.421Z,83.99
2023-10-12T17:01:16.198Z,84.41
2023-10-12T17:03:44.337Z,83.82
2023-10-12T17:06:11.625Z,83.99
2023-10-12T17:08:43.013Z,83.91
2023-10-12T17:11:10.909Z,84.11
2023-10-12T17:13:37.986Z,84.12
2023-10-12T17:16:05.483Z,84.43
2023-10-12T17:18:36.726Z,84.52
2023-10-12T17:21:04.176Z,84.63
2023-10-12T17:23:31.855Z,84.40
2023-10-12T17:26:00.614Z,84.24
2023-10-12T17:28:32.623Z,84.13
2023-10-12T17:31:09.513Z,84.33
2023-10-12T17:33:38.136Z,84.39
2023-10-12T17:36:16.441Z,84.34
2023-10-12T17:38:51.154Z,84.47
2023-10-12T17:41:22.280Z,84.50
2023-10-12T17:43:55.191Z,84.28
2023-10-12T17:46:24.089Z,84.51
2023-10-12T17:48:55.413Z,84.51
2023-10-12T17:51:23.179Z,84.53
2023-10-12T17:53:51.585Z,84.68
2023-10-12T17:56:19.662Z,84.59
2023-10-12T17:58:47.554Z,84.95
2023-10-12T18:01:19.665Z,84.97
2023-10-12T18:03:48.133Z,85.12
2023-10-12T18:06:15.827Z,84.96
2023-10-12T18:08:45.013Z,84.96
2023-10-12T18:11:15.086Z,84.91
2023-10-12T18:13:43.647Z,84.88
2023-10-12T18:16:12.743Z,84.85
2023-10-12T18:18:40.609Z,85.07
2023-10-12T18:21:08.220Z,85.00
2023-10-12T18:23:40.259Z,85.36
2023-10-12T18:26:08.600Z,85.20
2023-10-12T18:28:36.390Z,85.21
2023-10-12T18:31:07.384Z,85.50
2023-10-12T18:33:36.573Z,85.33
2023-10-12T18:36:12.936Z,85.21
2023-10-12T18:38:45.006Z,85.42
2023-10-12T18:41:17.845Z,85.45
2023-10-12T18:43:47.308Z,85.40
2023-10-12T18:46:14.868Z,85.46
2023-10-12T18:48:44.380Z,85.52
2023-10-12T18:51:32.576Z,85.87
2023-10-12T18:54:03.349Z,85.65
2023-10-12T18:56:31.113Z,85.63
2023-10-12T18:58:58.369Z,85.65
2023-10-12T19:01:26.289Z,85.50
2023-10-12T19:03:58.393Z,85.50
2023-10-12T19:06:26.273Z,85.86
2023-10-12T19:08:56.429Z,85.79
2023-10-12T19:11:24.164Z,85.97
2023-10-12T19:13:52.496Z,85.89
2023-10-12T19:16:21.476Z,86.02
2023-10-12T19:18:52.563Z,85.79
2023-10-12T19:21:21.254Z,85.71
2023-10-12T19:23:49.077Z,85.90
2023-10-12T19:26:16.897Z,85.82
2023-10-12T19:28:45.702Z,85.93
2023-10-12T19:31:17.002Z,86.04
2023-10-12T19:33:45.989Z,86.09
2023-10-12T19:36:14.537Z,85.99
2023-10-12T19:38:43.728Z,86.00
2023-10-12T19:41:11.238Z,86.30
2023-10-12T19:43:39.498Z,86.10
2023-10-12T19:46:11.756Z,86.17
2023-10-12T19:48:40.890Z,86.21
2023-10-12T19:51:18.448Z,86.27
2023-10-12T19:53:47.928Z,86.36
2023-10-12T19:56:20.811Z,86.12
2023-10-12T19:58:50.155Z,86.40
2023-10-12T20:01:22.427Z,86.54
2023-10-12T20:03:51.182Z,86.59
2023-10-12T20:06:21.751Z,86.50
2023-10-12T20:08:49.947Z,86.63
2023-10-12T20:11:19.028Z,86.65
2023-10-12T20:13:49.740Z,86.63
2023-10-12T20:16:26.326Z,86.64
2023-10-12T20:18:53.929Z,86.70
2023-10-12T20:21:21.891Z,86.96
2023-10-12T20:23:49.811Z,87.44
2023-10-12T20:26:22.239Z,86.86
2023-10-12T20:28:49.676Z,86.93
2023-10-12T20:31:17.234Z,86.80
2023-10-12T20:33:44.642Z,86.90
2023-10-12T20:36:12.655Z,87.07
2023-10-12T20:38:41.120Z,87.05
2023-10-12T20:41:08.568Z,87.22
2023-10-12T20:43:36.305Z,87.15
2023-10-12T20:46:11.247Z,87.23
2023-10-12T20:48:39.209Z,87.22
2023-10-12T20:51:07.078Z,87.14
2023-10-12T20:53:35.811Z,87.20
2023-10-12T20:56:20.935Z,87.25
2023-10-12T20:58:48.274Z,87.39
2023-10-12T21:01:26.543Z,87.29
2023-10-12T21:03:58.940Z,87.25
2023-10-12T21:06:30.142Z,87.34
2023-10-12T21:08:58.780Z,87.30
2023-10-12T21:11:26.729Z,87.33
2023-10-12T21:13:56.768Z,87.14
2023-10-12T21:16:24.780Z,87.13
2023-10-12T21:18:53.068Z,87.10
2023-10-12T21:21:26.278Z,87.15
2023-10-12T21:23:54.884Z,86.98
2023-10-12T21:26:30.853Z,86.99
2023-10-12T21:28:59.674Z,86.89
2023-10-12T21:31:31.623Z,87.10
2023-10-12T21:34:02.997Z,87.07
2023-10-12T21:36:34.348Z,87.11
2023-10-12T21:39:01.452Z,87.25
2023-10-12T21:41:35.595Z,87.32
2023-10-12T21:44:05.259Z,87.40
2023-10-12T21:46:34.354Z,87.38
2023-10-12T21:49:03.920Z,87.51
2023-10-12T21:51:31.232Z,87.37
2023-10-12T21:53:59.181Z,87.54
2023-10-12T21:56:27.745Z,87.38
2023-10-12T21:58:56.948Z,87.44
2023-10-12T22:01:37.521Z,87.61
2023-10-12T22:04:06.046Z,87.52
2023-10-12T22:06:38.956Z,87.52
2023-10-12T22:09:06.254Z,87.38
2023-10-12T22:11:40.354Z,87.83
2023-10-12T22:14:17.137Z,87.61
2023-10-12T22:16:52.291Z,87.54
2023-10-12T22:19:20.698Z,87.52
2023-10-12T22:21:49.953Z,87.61
2023-10-12T22:24:18.459Z,87.65
2023-10-12T22:26:46.128Z,87.66
2023-10-12T22:29:15.153Z,87.68
2023-10-12T22:31:46.282Z,87.80
2023-10-12T22:34:17.463Z,87.72
2023-10-12T22:36:48.274Z,87.77
2023-10-12T22:39:21.392Z,87.70
2023-10-12T22:41:50.886Z,87.69
2023-10-12T22:44:19.070Z,87.66
2023-10-12T22:46:46.455Z,87.60
2023-10-12T22:49:14.645Z,87.61
2023-10-12T22:51:42.357Z,87.64
2023-10-12T22:54:09.661Z,87.69
2023-10-12T22:56:37.187Z,87.60
2023-10-12T22:59:04.586Z,87.56
2023-10-12T23:01:31.789Z,87.62
2023-10-12T23:03:59.800Z,87.56
2023-10-12T23:06:27.384Z,87.44
2023-10-12T23:08:54.563Z,87.32
2023-10-12T23:11:22.745Z,87.35
2023-10-12T23:13:51.635Z,87.23
2023-10-12T23:16:48.006Z,87.31
2023-10-12T23:19:17.315Z,87.26
2023-10-12T23:21:45.791Z,87.29
2023-10-12T23:24:22.391Z,87.36
2023-10-12T23:26:54.244Z,87.50
2023-10-12T23:29:23.001Z,87.53
2023-10-12T23:31:50.509Z,87.19
2023-10-12T23:34:24.325Z,87.10
2023-10-12T23:37:00.122Z,87.28
2023-10-12T23:39:46.822Z,87.24
2023-10-12T23:42:15.587Z,87.31
2023-10-12T23:44:52.338Z,87.04
2023-10-12T23:47:41.977Z,86.95
2023-10-12T23:50:12.988Z,86.93
2023-10-12T23:53:00.862Z,86.96
2023-10-12T23:55:31.663Z,86.93
2023-10-12T23:58:08.768Z,86.81
